Time;durP1;ratioP1;P1;durP2;ratioP2;P2;SDS_P1;SDS_P2;PMS_P1;PMS_P2;Temp;Humidity;BMP_temperature;BMP_pressure;BME280_temperature;BME280_humidity;BME280_pressure;Samples;Min_cycle;Max_cycle;Signal;HPM_P1;HPM_P2
2022/01/03 00:01:29;;;;;;;1.33;0.73;;;;;;;;;;4996039;28;20248;-59
2022/01/03 00:03:56;;;;;;;1.57;0.67;;;;;;;;;;4998293;28;20197;-59
2022/01/03 00:06:23;;;;;;;0.73;0.73;;;;;;;;;;4999298;28;20288;-60
2022/01/03 00:08:50;;;;;;;0.60;0.40;;;;;;;;;;5001700;28;20206;-59
2022/01/03 00:11:18;;;;;;;0.80;0.60;;;;;;;;;;5000021;28;20660;-59
2022/01/03 00:13:47;;;;;;;0.97;0.30;;;;;;;;;;5004088;28;20202;-63
2022/01/03 00:16:15;;;;;;;1.80;0.30;;;;;;;;;;5004619;28;20252;-59
2022/01/03 00:18:42;;;;;;;0.30;0.20;;;;;;;;;;5001004;28;20268;-59
2022/01/03 00:21:11;;;;;;;0.97;0.53;;;;;;;;;;5004652;28;20206;-59
2022/01/03 00:23:40;;;;;;;0.10;0.10;;;;;;;;;;5001828;28;20204;-59
2022/01/03 00:26:08;;;;;;;0.83;0.20;;;;;;;;;;5002902;28;20201;-60
2022/01/03 00:28:36;;;;;;;0.10;0.10;;;;;;;;;;5002722;28;20260;-60
2022/01/03 00:31:06;;;;;;;0.77;0.20;;;;;;;;;;5002760;28;20219;-59
2022/01/03 00:33:33;;;;;;;0.20;0.20;;;;;;;;;;5002106;28;20209;-60
2022/01/03 00:36:01;;;;;;;0.20;0.10;;;;;;;;;;5003569;28;20245;-59
2022/01/03 00:38:29;;;;;;;0.37;0.20;;;;;;;;;;5004908;28;20904;-60
2022/01/03 00:40:56;;;;;;;0.03;0.03;;;;;;;;;;5001327;28;20263;-59
2022/01/03 00:43:24;;;;;;;1.77;0.17;;;;;;;;;;5002962;28;20236;-59
2022/01/03 00:45:53;;;;;;;0.87;0.10;;;;;;;;;;5003407;28;20197;-60
2022/01/03 00:48:21;;;;;;;1.90;0.20;;;;;;;;;;5000045;28;20237;-60
2022/01/03 00:50:48;;;;;;;0.50;0.13;;;;;;;;;;4999890;28;20232;-59
2022/01/03 00:53:16;;;;;;;2.57;0.20;;;;;;;;;;5002985;28;20275;-60
2022/01/03 00:55:51;;;;;;;1.20;0.10;;;;;;;;;;5001454;28;20707;-60
2022/01/03 00:58:21;;;;;;;0.33;0.20;;;;;;;;;;5002851;28;20649;-60
2022/01/03 01:00:49;;;;;;;0.13;0.13;;;;;;;;;;5000840;28;20908;-60
2022/01/03 01:03:20;;;;;;;0.10;0.10;;;;;;;;;;5001827;28;20206;-60
2022/01/03 01:05:50;;;;;;;2.40;0.10;;;;;;;;;;5000341;28;20202;-60
2022/01/03 01:08:18;;;;;;;0.10;0.10;;;;;;;;;;5002605;28;20213;-60
2022/01/03 01:10:46;;;;;;;1.13;0.10;;;;;;;;;;5000038;28;20205;-60
2022/01/03 01:13:14;;;;;;;0.10;0.10;;;;;;;;;;5002828;28;20801;-60
2022/01/03 01:15:41;;;;;;;1.73;0.23;;;;;;;;;;5002817;28;20291;-60
2022/01/03 01:18:08;;;;;;;0.27;0.27;;;;;;;;;;4999559;28;20217;-59
2022/01/03 01:20:36;;;;;;;0.10;0.10;;;;;;;;;;5001326;28;20843;-60
2022/01/03 01:23:06;;;;;;;1.70;0.20;;;;;;;;;;5001657;28;20210;-60
2022/01/03 01:28:32;;;;;;;1.33;0.27;;;;;;;;;;4923181;29;20244;-59
2022/01/03 01:31:01;;;;;;;1.23;0.20;;;;;;;;;;4922310;29;20687;-59
2022/01/03 01:33:31;;;;;;;0.23;0.20;;;;;;;;;;4960468;28;20304;-59
2022/01/03 01:36:02;;;;;;;0.87;0.20;;;;;;;;;;5001128;28;20233;-59
2022/01/03 01:38:33;;;;;;;0.00;0.00;;;;;;;;;;5000151;28;20210;-59
2022/01/03 01:41:01;;;;;;;1.47;0.10;;;;;;;;;;5000844;28;20212;-59
2022/01/03 01:43:33;;;;;;;0.03;0.03;;;;;;;;;;5000111;28;20684;-60
2022/01/03 01:46:01;;;;;;;2.00;0.10;;;;;;;;;;4997760;28;20214;-59
2022/01/03 01:48:29;;;;;;;1.10;0.17;;;;;;;;;;5001518;28;20680;-60
2022/01/03 01:50:59;;;;;;;0.10;0.10;;;;;;;;;;5000617;28;20228;-60
2022/01/03 01:53:26;;;;;;;0.10;0.10;;;;;;;;;;4998902;28;20212;-60
2022/01/03 01:55:56;;;;;;;0.00;0.00;;;;;;;;;;4999379;28;20240;-60
2022/01/03 01:58:29;;;;;;;0.10;0.10;;;;;;;;;;4999300;28;20213;-60
2022/01/03 02:00:58;;;;;;;1.50;0.10;;;;;;;;;;4998067;28;20204;-60
2022/01/03 02:03:27;;;;;;;2.33;0.20;;;;;;;;;;5000580;28;20232;-60
2022/01/03 02:05:58;;;;;;;1.10;0.33;;;;;;;;;;4997237;28;20202;-60
2022/01/03 02:08:27;;;;;;;0.20;0.20;;;;;;;;;;4999162;28;20209;-60
2022/01/03 02:10:59;;;;;;;3.40;0.30;;;;;;;;;;4999382;28;20205;-59
2022/01/03 02:13:26;;;;;;;0.70;0.10;;;;;;;;;;5000321;28;20201;-60
2022/01/03 02:16:00;;;;;;;0.60;0.13;;;;;;;;;;4996600;28;20236;-60
2022/01/03 02:18:27;;;;;;;1.27;0.20;;;;;;;;;;5001718;28;20209;-60
2022/01/03 02:20:56;;;;;;;0.63;0.30;;;;;;;;;;4997337;28;20209;-60
2022/01/03 02:23:23;;;;;;;2.73;0.17;;;;;;;;;;4997193;28;20217;-60
2022/01/03 02:25:51;;;;;;;0.30;0.10;;;;;;;;;;5000707;28;20583;-60
2022/01/03 02:28:20;;;;;;;1.10;0.30;;;;;;;;;;4999232;28;20630;-60
2022/01/03 02:30:48;;;;;;;0.10;0.10;;;;;;;;;;4997525;28;20661;-60
2022/01/03 02:33:15;;;;;;;0.53;0.10;;;;;;;;;;4996295;28;20210;-60
2022/01/03 02:35:43;;;;;;;0.13;0.13;;;;;;;;;;4999498;28;20221;-60
2022/01/03 02:38:11;;;;;;;0.73;0.40;;;;;;;;;;4998527;28;20575;-60
2022/01/03 02:40:38;;;;;;;0.43;0.20;;;;;;;;;;4998198;28;20975;-60
2022/01/03 02:43:05;;;;;;;3.80;0.30;;;;;;;;;;4998929;28;20213;-59
2022/01/03 02:45:33;;;;;;;0.63;0.20;;;;;;;;;;4999557;28;20340;-60
2022/01/03 02:48:00;;;;;;;0.10;0.10;;;;;;;;;;5000368;28;20236;-59
2022/01/03 02:50:28;;;;;;;0.10;0.10;;;;;;;;;;4998874;28;20221;-60
2022/01/03 02:52:56;;;;;;;1.13;0.20;;;;;;;;;;5001199;28;20235;-60
2022/01/03 02:55:26;;;;;;;1.63;0.13;;;;;;;;;;5004993;28;20690;-60
2022/01/03 02:57:54;;;;;;;1.70;0.20;;;;;;;;;;4998963;28;20201;-60
2022/01/03 03:00:22;;;;;;;0.30;0.30;;;;;;;;;;4998222;28;20201;-59
2022/01/03 03:02:49;;;;;;;2.83;0.40;;;;;;;;;;4999838;28;20205;-60
2022/01/03 03:05:17;;;;;;;0.30;0.13;;;;;;;;;;4998966;28;20263;-59
2022/01/03 03:07:45;;;;;;;0.47;0.47;;;;;;;;;;5000686;28;20210;-60
2022/01/03 03:10:13;;;;;;;0.60;0.27;;;;;;;;;;4997973;28;20197;-60
2022/01/03 03:12:42;;;;;;;0.10;0.10;;;;;;;;;;5000911;28;20204;-60
2022/01/03 03:15:10;;;;;;;0.30;0.30;;;;;;;;;;5000182;28;20209;-59
2022/01/03 03:17:39;;;;;;;0.93;0.30;;;;;;;;;;4999567;28;20279;-60
2022/01/03 03:20:08;;;;;;;0.63;0.00;;;;;;;;;;5000043;28;20292;-60
2022/01/03 03:22:35;;;;;;;2.87;0.20;;;;;;;;;;4999613;28;20208;-60
2022/01/03 03:25:03;;;;;;;1.40;0.33;;;;;;;;;;4999498;28;20279;-60
2022/01/03 03:27:30;;;;;;;0.20;0.20;;;;;;;;;;4997666;28;20208;-57
2022/01/03 03:29:59;;;;;;;1.30;0.20;;;;;;;;;;4997431;28;20657;-60
2022/01/03 03:32:26;;;;;;;5.40;0.30;;;;;;;;;;4997390;28;20206;-60
2022/01/03 03:34:54;;;;;;;0.17;0.17;;;;;;;;;;4998034;28;20206;-60
2022/01/03 03:37:21;;;;;;;1.57;0.20;;;;;;;;;;4997946;28;20455;-60
2022/01/03 03:39:48;;;;;;;1.80;0.27;;;;;;;;;;4996646;28;20295;-60
2022/01/03 03:42:16;;;;;;;0.37;0.37;;;;;;;;;;4999309;28;20201;-60
2022/01/03 03:44:46;;;;;;;0.50;0.30;;;;;;;;;;4999803;28;20209;-60
2022/01/03 03:47:15;;;;;;;4.53;0.43;;;;;;;;;;5000186;28;20201;-59
2022/01/03 03:49:42;;;;;;;1.53;0.20;;;;;;;;;;5001134;28;20285;-59
2022/01/03 03:52:10;;;;;;;0.20;0.10;;;;;;;;;;5003081;28;20296;-60
2022/01/03 03:54:37;;;;;;;0.30;0.20;;;;;;;;;;5001396;28;20206;-58
2022/01/03 03:57:08;;;;;;;3.13;0.30;;;;;;;;;;5002269;28;20225;-61
2022/01/03 03:59:35;;;;;;;2.00;0.20;;;;;;;;;;5000993;28;20210;-58
2022/01/03 04:02:02;;;;;;;0.93;0.10;;;;;;;;;;4999429;28;20575;-58
2022/01/03 04:04:31;;;;;;;0.93;0.30;;;;;;;;;;5002606;28;20209;-58
2022/01/03 04:06:58;;;;;;;0.20;0.20;;;;;;;;;;5007259;28;20706;-58
2022/01/03 04:09:25;;;;;;;0.70;0.10;;;;;;;;;;5003048;28;20209;-58
2022/01/03 04:11:52;;;;;;;1.63;0.30;;;;;;;;;;5002728;28;20220;-59
2022/01/03 04:14:22;;;;;;;0.20;0.10;;;;;;;;;;5001854;28;20267;-59
2022/01/03 04:16:49;;;;;;;0.87;0.30;;;;;;;;;;5001150;28;20233;-58
2022/01/03 04:19:16;;;;;;;0.97;0.10;;;;;;;;;;5001928;28;20263;-59
2022/01/03 04:21:44;;;;;;;0.97;0.17;;;;;;;;;;5005165;28;20201;-58
2022/01/03 04:24:12;;;;;;;0.10;0.10;;;;;;;;;;5002427;28;20848;-58
2022/01/03 04:26:40;;;;;;;1.67;0.10;;;;;;;;;;5003723;28;20656;-59
2022/01/03 04:29:07;;;;;;;0.63;0.17;;;;;;;;;;5001274;28;20661;-59
2022/01/03 04:31:34;;;;;;;2.37;0.10;;;;;;;;;;5011340;28;20314;-59
2022/01/03 04:34:01;;;;;;;0.13;0.13;;;;;;;;;;5005909;28;20209;-58
2022/01/03 04:36:28;;;;;;;0.10;0.10;;;;;;;;;;5006543;28;20240;-59
2022/01/03 04:38:57;;;;;;;0.47;0.10;;;;;;;;;;5000129;28;20210;-58
2022/01/03 04:41:24;;;;;;;0.00;0.00;;;;;;;;;;5005742;28;20217;-58
2022/01/03 04:43:51;;;;;;;0.17;0.17;;;;;;;;;;5011426;28;20209;-58
2022/01/03 04:46:18;;;;;;;0.00;0.00;;;;;;;;;;5011027;28;20675;-58
2022/01/03 04:48:45;;;;;;;0.10;0.10;;;;;;;;;;5011691;28;20220;-58
2022/01/03 04:51:13;;;;;;;0.10;0.10;;;;;;;;;;5001053;28;20230;-59
2022/01/03 04:53:40;;;;;;;1.03;0.00;;;;;;;;;;4992450;28;20213;-58
2022/01/03 04:56:10;;;;;;;1.33;0.10;;;;;;;;;;5009152;28;20769;-58
2022/01/03 04:58:38;;;;;;;0.73;0.10;;;;;;;;;;5010808;28;20209;-58
2022/01/03 05:01:05;;;;;;;0.00;0.00;;;;;;;;;;5011629;28;20208;-58
2022/01/03 05:03:33;;;;;;;0.10;0.10;;;;;;;;;;5010604;28;20201;-58
2022/01/03 05:06:01;;;;;;;0.10;0.10;;;;;;;;;;5010438;28;20719;-58
2022/01/03 05:08:29;;;;;;;0.00;0.00;;;;;;;;;;5011413;28;20209;-57
2022/01/03 05:10:56;;;;;;;0.27;0.10;;;;;;;;;;5011713;28;20335;-58
2022/01/03 05:13:24;;;;;;;0.00;0.00;;;;;;;;;;4999374;28;20664;-57
2022/01/03 05:15:51;;;;;;;0.10;0.10;;;;;;;;;;5010948;28;20236;-58
2022/01/03 05:18:18;;;;;;;0.10;0.10;;;;;;;;;;5011079;28;20232;-58
2022/01/03 05:20:45;;;;;;;0.03;0.03;;;;;;;;;;5010956;28;20220;-57
2022/01/03 05:23:12;;;;;;;0.30;0.03;;;;;;;;;;5011182;28;20201;-58
2022/01/03 05:25:39;;;;;;;0.67;0.10;;;;;;;;;;5010749;28;20208;-58
2022/01/03 05:28:06;;;;;;;0.80;0.20;;;;;;;;;;5010967;28;20212;-58
2022/01/03 05:30:35;;;;;;;0.20;0.20;;;;;;;;;;5010366;28;20216;-58
2022/01/03 05:33:02;;;;;;;0.53;0.20;;;;;;;;;;5010624;28;20201;-59
2022/01/03 05:35:29;;;;;;;0.03;0.03;;;;;;;;;;5009968;28;20213;-58
2022/01/03 05:37:57;;;;;;;0.10;0.00;;;;;;;;;;5008273;28;21049;-58
2022/01/03 05:40:24;;;;;;;0.10;0.10;;;;;;;;;;5011054;28;20219;-58
2022/01/03 05:42:51;;;;;;;0.50;0.20;;;;;;;;;;5010812;28;20292;-58
2022/01/03 05:45:18;;;;;;;0.00;0.00;;;;;;;;;;5010795;28;20216;-60
2022/01/03 05:47:47;;;;;;;0.07;0.07;;;;;;;;;;5008962;28;20205;-58
2022/01/03 05:50:15;;;;;;;0.00;0.00;;;;;;;;;;5010813;28;20240;-58
2022/01/03 05:52:42;;;;;;;2.83;0.10;;;;;;;;;;5010603;28;20745;-58
2022/01/03 05:55:09;;;;;;;1.20;0.20;;;;;;;;;;5010969;28;20638;-58
2022/01/03 05:57:37;;;;;;;0.37;0.20;;;;;;;;;;5003577;28;20696;-58
2022/01/03 06:00:06;;;;;;;1.40;0.30;;;;;;;;;;5000816;28;20213;-58
2022/01/03 06:02:38;;;;;;;0.57;0.13;;;;;;;;;;5001248;28;20297;-58
2022/01/03 06:05:10;;;;;;;6.37;0.40;;;;;;;;;;5000627;28;20205;-58
2022/01/03 06:07:37;;;;;;;2.07;0.23;;;;;;;;;;4996121;28;20241;-58
2022/01/03 06:10:08;;;;;;;0.07;0.07;;;;;;;;;;4999883;28;20216;-58
2022/01/03 06:12:36;;;;;;;0.30;0.30;;;;;;;;;;5002444;28;20666;-58
2022/01/03 06:15:03;;;;;;;0.10;0.10;;;;;;;;;;4999841;28;20874;-59
2022/01/03 06:17:30;;;;;;;2.27;0.10;;;;;;;;;;5006596;28;20236;-59
2022/01/03 06:19:57;;;;;;;0.20;0.20;;;;;;;;;;5009451;28;20209;-60
2022/01/03 06:22:26;;;;;;;0.30;0.20;;;;;;;;;;5009694;28;20212;-60
2022/01/03 06:24:53;;;;;;;0.20;0.20;;;;;;;;;;5009261;28;20208;-60
2022/01/03 06:27:20;;;;;;;0.07;0.07;;;;;;;;;;5004768;28;20667;-59
2022/01/03 06:29:47;;;;;;;1.80;0.30;;;;;;;;;;5000803;28;20206;-60
2022/01/03 06:32:14;;;;;;;0.40;0.40;;;;;;;;;;5004649;28;20319;-60
2022/01/03 06:34:41;;;;;;;0.10;0.10;;;;;;;;;;4995825;28;20710;-58
2022/01/03 06:37:08;;;;;;;0.00;0.00;;;;;;;;;;4994714;28;20228;-58
2022/01/03 06:39:36;;;;;;;1.60;0.43;;;;;;;;;;5009646;28;20212;-60
2022/01/03 06:42:03;;;;;;;0.77;0.47;;;;;;;;;;5009230;28;20210;-59
2022/01/03 06:44:30;;;;;;;0.83;0.17;;;;;;;;;;5008576;28;20201;-59
2022/01/03 06:46:57;;;;;;;0.93;0.10;;;;;;;;;;5009953;28;20208;-59
2022/01/03 06:49:24;;;;;;;0.10;0.10;;;;;;;;;;5005918;28;20711;-59
2022/01/03 06:52:09;;;;;;;0.27;0.23;;;;;;;;;;5008075;28;20283;-58
2022/01/03 06:54:38;;;;;;;0.37;0.23;;;;;;;;;;5009383;28;20209;-58
2022/01/03 06:57:05;;;;;;;0.40;0.17;;;;;;;;;;5009034;28;20703;-58
2022/01/03 06:59:32;;;;;;;0.20;0.20;;;;;;;;;;5009686;28;20215;-60
2022/01/03 07:01:59;;;;;;;0.10;0.10;;;;;;;;;;4997839;28;20213;-59
2022/01/03 07:04:26;;;;;;;0.33;0.10;;;;;;;;;;5002684;28;20210;-58
2022/01/03 07:06:53;;;;;;;1.90;0.30;;;;;;;;;;4995954;28;20209;-58
2022/01/03 07:09:20;;;;;;;0.10;0.10;;;;;;;;;;5009186;28;20213;-58
2022/01/03 07:11:48;;;;;;;1.60;0.10;;;;;;;;;;4996264;28;20672;-58
2022/01/03 07:19:47;;;;;;;0.60;0.10;;;;;;;;;;5009575;28;20203;-58
2022/01/03 07:22:14;;;;;;;2.23;0.30;;;;;;;;;;5011072;28;20209;-58
2022/01/03 07:24:42;;;;;;;0.30;0.10;;;;;;;;;;5012590;28;20209;-59
2022/01/03 07:27:11;;;;;;;2.40;0.40;;;;;;;;;;5010942;28;20201;-59
2022/01/03 07:29:38;;;;;;;0.20;0.20;;;;;;;;;;5005236;28;20248;-59
2022/01/03 07:32:06;;;;;;;0.27;0.20;;;;;;;;;;5002593;28;20210;-59
2022/01/03 07:34:33;;;;;;;0.57;0.30;;;;;;;;;;4993598;28;20233;-58
2022/01/03 07:37:00;;;;;;;1.83;0.30;;;;;;;;;;5009928;28;20221;-59
2022/01/03 07:39:30;;;;;;;1.07;0.43;;;;;;;;;;5012931;28;20208;-59
2022/01/03 07:41:57;;;;;;;0.47;0.40;;;;;;;;;;5000575;28;20205;-59
2022/01/03 07:44:25;;;;;;;0.30;0.30;;;;;;;;;;4998811;28;20221;-59
2022/01/03 07:46:54;;;;;;;0.30;0.30;;;;;;;;;;5008417;28;20220;-59
2022/01/03 07:49:21;;;;;;;3.43;0.40;;;;;;;;;;5012163;28;20205;-58
2022/01/03 07:51:48;;;;;;;2.57;0.37;;;;;;;;;;5011810;28;20853;-58
2022/01/03 07:54:15;;;;;;;1.37;0.33;;;;;;;;;;5005156;28;20217;-60
2022/01/03 07:56:42;;;;;;;0.67;0.67;;;;;;;;;;5009090;28;20205;-58
2022/01/03 07:59:09;;;;;;;0.90;0.87;;;;;;;;;;5012251;28;20232;-58
2022/01/03 08:01:40;;;;;;;2.40;0.50;;;;;;;;;;5002949;28;20698;-59
2022/01/03 08:04:07;;;;;;;0.73;0.40;;;;;;;;;;5012633;28;20212;-59
2022/01/03 08:06:34;;;;;;;2.10;0.30;;;;;;;;;;5012667;28;20216;-58
2022/01/03 08:09:01;;;;;;;10.00;0.70;;;;;;;;;;5010574;28;20224;-58
2022/01/03 08:11:28;;;;;;;0.90;0.40;;;;;;;;;;5006919;28;20206;-58
2022/01/03 08:13:55;;;;;;;1.07;0.40;;;;;;;;;;5009796;28;20639;-58
2022/01/03 08:16:22;;;;;;;1.83;0.43;;;;;;;;;;5012242;28;20209;-58
2022/01/03 08:18:51;;;;;;;6.93;0.50;;;;;;;;;;5012133;28;20306;-58
2022/01/03 08:21:18;;;;;;;0.87;0.20;;;;;;;;;;5008141;28;20208;-58
2022/01/03 08:23:45;;;;;;;1.27;0.40;;;;;;;;;;4997114;28;20209;-59
2022/01/03 08:26:12;;;;;;;4.10;0.70;;;;;;;;;;5010363;28;20585;-60
2022/01/03 08:28:39;;;;;;;0.80;0.47;;;;;;;;;;5012193;28;20205;-59
2022/01/03 08:31:06;;;;;;;3.60;0.33;;;;;;;;;;4995706;28;20232;-59
2022/01/03 08:33:33;;;;;;;0.87;0.30;;;;;;;;;;5009263;28;20205;-59
2022/01/03 08:36:02;;;;;;;1.60;0.60;;;;;;;;;;4995697;28;20222;-59
2022/01/03 08:38:29;;;;;;;4.70;0.33;;;;;;;;;;5011937;28;20228;-59
2022/01/03 08:40:56;;;;;;;3.13;0.30;;;;;;;;;;5009690;28;20284;-59
2022/01/03 08:43:23;;;;;;;1.80;0.27;;;;;;;;;;5008546;28;20228;-59
2022/01/03 08:45:50;;;;;;;5.57;0.50;;;;;;;;;;5004404;28;20202;-59
2022/01/03 08:48:17;;;;;;;1.40;0.20;;;;;;;;;;5005479;28;20206;-59
2022/01/03 08:50:44;;;;;;;0.40;0.40;;;;;;;;;;5008455;28;20246;-59
2022/01/03 08:53:13;;;;;;;1.20;0.40;;;;;;;;;;4996332;28;20237;-59
2022/01/03 08:55:40;;;;;;;1.10;0.50;;;;;;;;;;5004009;28;20212;-59
2022/01/03 08:58:07;;;;;;;1.40;0.60;;;;;;;;;;5001638;28;20225;-59
2022/01/03 09:00:35;;;;;;;2.00;0.40;;;;;;;;;;5002632;28;20216;-60
2022/01/03 09:03:02;;;;;;;1.13;0.40;;;;;;;;;;4999674;28;20198;-59
2022/01/03 09:05:29;;;;;;;3.10;0.67;;;;;;;;;;5006234;28;20217;-59
2022/01/03 09:07:56;;;;;;;1.20;0.30;;;;;;;;;;5011037;28;20625;-59
2022/01/03 09:10:25;;;;;;;3.90;0.40;;;;;;;;;;5010587;28;20224;-59
2022/01/03 09:12:52;;;;;;;3.83;1.27;;;;;;;;;;5004388;28;20205;-59
2022/01/03 09:15:19;;;;;;;3.53;1.20;;;;;;;;;;5000044;28;20255;-59
2022/01/03 09:17:47;;;;;;;2.33;1.10;;;;;;;;;;5010408;28;20232;-60
2022/01/03 09:20:15;;;;;;;2.87;0.60;;;;;;;;;;5009180;28;20213;-59
2022/01/03 09:22:45;;;;;;;3.43;0.90;;;;;;;;;;5004839;28;20206;-59
2022/01/03 09:30:43;;;;;;;1.17;0.50;;;;;;;;;;5009347;28;20605;-59
2022/01/03 09:33:10;;;;;;;0.93;0.43;;;;;;;;;;5003602;28;20202;-59
2022/01/03 09:35:37;;;;;;;0.40;0.20;;;;;;;;;;5006772;28;20212;-60
2022/01/03 09:38:05;;;;;;;0.67;0.60;;;;;;;;;;5010269;28;20225;-58
2022/01/03 09:40:32;;;;;;;1.80;0.60;;;;;;;;;;5006522;28;20216;-59
2022/01/03 09:43:01;;;;;;;1.93;0.50;;;;;;;;;;4996798;28;20205;-59
2022/01/03 09:45:32;;;;;;;3.50;0.93;;;;;;;;;;5007608;28;20565;-59
2022/01/03 09:48:00;;;;;;;3.93;0.50;;;;;;;;;;5006217;28;20669;-59
2022/01/03 09:50:27;;;;;;;0.40;0.40;;;;;;;;;;4993264;28;20237;-61
2022/01/03 09:52:55;;;;;;;3.93;1.07;;;;;;;;;;5007612;28;20299;-61
2022/01/03 09:55:23;;;;;;;6.40;0.90;;;;;;;;;;4997991;28;20615;-59
2022/01/03 09:57:50;;;;;;;4.33;1.13;;;;;;;;;;5007937;28;20707;-59
2022/01/03 10:00:22;;;;;;;1.57;0.90;;;;;;;;;;5010812;28;20224;-59
2022/01/03 10:02:49;;;;;;;2.30;0.80;;;;;;;;;;5004262;28;20240;-59
2022/01/03 10:05:17;;;;;;;1.20;0.70;;;;;;;;;;5008681;28;20204;-59
2022/01/03 10:07:44;;;;;;;4.27;1.20;;;;;;;;;;5010003;28;20240;-60
2022/01/03 10:10:11;;;;;;;2.47;1.10;;;;;;;;;;4995937;28;20719;-60
2022/01/03 10:12:39;;;;;;;2.90;1.93;;;;;;;;;;5002865;28;20214;-60
2022/01/03 10:15:07;;;;;;;4.97;1.23;;;;;;;;;;5006088;28;20934;-60
2022/01/03 10:17:36;;;;;;;0.70;0.70;;;;;;;;;;5005852;28;20212;-60
2022/01/03 10:20:04;;;;;;;2.13;1.63;;;;;;;;;;5009143;28;20221;-60
2022/01/03 10:22:31;;;;;;;4.83;1.50;;;;;;;;;;5009266;28;20216;-58
2022/01/03 10:25:00;;;;;;;3.30;2.00;;;;;;;;;;5008360;28;20204;-60
2022/01/03 10:27:44;;;;;;;3.00;1.80;;;;;;;;;;5008560;28;20205;-60
2022/01/03 10:30:12;;;;;;;2.40;1.87;;;;;;;;;;5009087;28;20220;-58
2022/01/03 10:32:40;;;;;;;3.37;1.90;;;;;;;;;;5005915;28;20219;-58
2022/01/03 10:35:14;;;;;;;5.20;1.33;;;;;;;;;;4996682;28;20209;-59
2022/01/03 10:37:41;;;;;;;8.00;1.60;;;;;;;;;;5001675;28;20324;-59
2022/01/03 10:40:25;;;;;;;3.27;1.47;;;;;;;;;;4992260;28;20214;-59
2022/01/03 10:42:52;;;;;;;8.73;3.50;;;;;;;;;;5003464;28;20970;-59
2022/01/03 10:45:28;;;;;;;5.67;1.60;;;;;;;;;;5000818;28;20748;-59
2022/01/03 10:47:56;;;;;;;3.10;1.63;;;;;;;;;;4999726;28;20296;-59
2022/01/03 10:50:24;;;;;;;2.53;1.40;;;;;;;;;;5000088;28;20627;-59
2022/01/03 10:52:51;;;;;;;3.50;1.73;;;;;;;;;;4999401;28;20261;-58
2022/01/03 10:55:20;;;;;;;2.57;1.67;;;;;;;;;;4988591;28;20272;-60
2022/01/03 10:57:52;;;;;;;6.23;2.73;;;;;;;;;;4996679;28;20206;-58
2022/01/03 11:00:20;;;;;;;7.73;3.30;;;;;;;;;;4990671;28;20221;-59
2022/01/03 11:03:04;;;;;;;9.23;2.97;;;;;;;;;;5002011;28;20213;-59
2022/01/03 11:05:40;;;;;;;8.83;3.70;;;;;;;;;;4988136;28;20213;-60
2022/01/03 11:10:52;;;;;;;5.10;2.17;;;;;;;;;;4989946;28;20726;-59
2022/01/03 11:13:20;;;;;;;10.20;4.50;;;;;;;;;;5004989;28;20209;-58
2022/01/03 11:15:51;;;;;;;7.90;2.67;;;;;;;;;;4998931;28;20213;-59
2022/01/03 11:18:19;;;;;;;6.70;2.17;;;;;;;;;;5005275;28;20319;-59
2022/01/03 11:20:49;;;;;;;15.17;4.57;;;;;;;;;;5003325;28;20201;-59
2022/01/03 11:23:20;;;;;;;16.60;4.90;;;;;;;;;;5004127;28;20241;-59
2022/01/03 11:25:47;;;;;;;3.23;2.37;;;;;;;;;;4989683;28;20292;-59
2022/01/03 11:28:14;;;;;;;3.67;1.70;;;;;;;;;;4991145;28;20217;-59
2022/01/03 11:30:42;;;;;;;2.20;1.30;;;;;;;;;;5002590;28;20201;-59
2022/01/03 11:33:11;;;;;;;2.47;0.90;;;;;;;;;;4991445;28;20295;-59
2022/01/03 11:35:38;;;;;;;4.80;2.00;;;;;;;;;;4991281;28;20300;-59
2022/01/03 11:38:08;;;;;;;5.50;1.00;;;;;;;;;;4989588;28;20750;-59
2022/01/03 11:40:36;;;;;;;2.77;0.93;;;;;;;;;;5000379;28;20469;-59
2022/01/03 11:43:06;;;;;;;4.07;1.13;;;;;;;;;;4996933;28;20221;-60
2022/01/03 11:45:33;;;;;;;2.43;1.30;;;;;;;;;;4991896;28;20232;-59
2022/01/03 11:48:00;;;;;;;2.37;1.70;;;;;;;;;;4991676;28;20664;-58
2022/01/03 11:50:28;;;;;;;4.87;1.83;;;;;;;;;;5003216;28;20236;-58
2022/01/03 11:52:55;;;;;;;3.20;1.40;;;;;;;;;;5003337;28;20249;-59
2022/01/03 11:55:24;;;;;;;0.90;0.90;;;;;;;;;;4994665;28;20213;-59
2022/01/03 12:03:41;;;;;;;3.87;1.70;;;;;;;;;;4989822;28;20232;-60
2022/01/03 12:06:09;;;;;;;1.50;1.37;;;;;;;;;;5001593;28;20317;-60
2022/01/03 12:08:36;;;;;;;3.17;0.83;;;;;;;;;;4998516;28;20205;-60
2022/01/03 12:11:19;;;;;;;1.83;1.00;;;;;;;;;;5001105;28;20221;-60
2022/01/03 12:13:50;;;;;;;4.53;1.90;;;;;;;;;;5002418;28;20201;-60
2022/01/03 12:16:17;;;;;;;3.80;1.00;;;;;;;;;;4992828;28;20276;-60
2022/01/03 12:18:58;;;;;;;3.30;1.20;;;;;;;;;;4994960;28;20272;-60
2022/01/03 12:21:51;;;;;;;5.53;0.70;;;;;;;;;;4992443;28;20216;-61
2022/01/03 12:27:32;;;;;;;0.90;0.90;;;;;;;;;;4989637;28;20201;-60
2022/01/03 12:30:06;;;;;;;2.27;0.80;;;;;;;;;;5010290;28;20215;-61
2022/01/03 12:32:34;;;;;;;2.77;0.77;;;;;;;;;;5011932;28;20217;-60
2022/01/03 12:35:31;;;;;;;4.43;1.00;;;;;;;;;;5011013;28;20335;-61
2022/01/03 12:38:13;;;;;;;5.90;0.70;;;;;;;;;;4920963;29;20207;-60
2022/01/03 12:40:48;;;;;;;4.80;0.97;;;;;;;;;;4994696;28;20225;-61
2022/01/03 12:43:18;;;;;;;3.83;0.90;;;;;;;;;;5000994;28;20216;-60
2022/01/03 12:45:52;;;;;;;3.40;0.90;;;;;;;;;;5011945;28;20274;-60
2022/01/03 12:48:20;;;;;;;2.80;0.77;;;;;;;;;;5009743;28;20200;-60
2022/01/03 12:50:48;;;;;;;6.57;1.07;;;;;;;;;;5006616;28;20294;-60
2022/01/03 12:53:30;;;;;;;0.93;0.67;;;;;;;;;;4998516;28;20244;-61
2022/01/03 12:55:57;;;;;;;2.67;0.67;;;;;;;;;;5011046;28;20205;-60
2022/01/03 12:58:42;;;;;;;0.50;0.50;;;;;;;;;;5005854;28;20208;-61
2022/01/03 13:01:21;;;;;;;2.57;0.77;;;;;;;;;;4995230;28;20228;-60
2022/01/03 13:03:49;;;;;;;3.70;0.93;;;;;;;;;;5005568;28;20206;-59
2022/01/03 13:06:17;;;;;;;3.50;0.70;;;;;;;;;;4991900;28;20214;-61
2022/01/03 13:09:01;;;;;;;3.43;0.70;;;;;;;;;;5009803;28;20209;-61
2022/01/03 13:11:29;;;;;;;3.83;0.50;;;;;;;;;;5011555;28;20549;-60
2022/01/03 13:14:01;;;;;;;3.40;0.60;;;;;;;;;;5010861;28;20219;-61
2022/01/03 13:16:29;;;;;;;4.10;0.40;;;;;;;;;;5006204;28;20260;-60
2022/01/03 13:18:57;;;;;;;3.30;0.90;;;;;;;;;;5006569;28;20225;-60
2022/01/03 13:21:25;;;;;;;6.60;0.63;;;;;;;;;;4992413;28;20221;-60
2022/01/03 13:23:52;;;;;;;4.20;0.93;;;;;;;;;;5007146;28;20596;-60
2022/01/03 13:26:20;;;;;;;4.23;0.40;;;;;;;;;;5006949;28;20213;-60
2022/01/03 13:28:47;;;;;;;4.10;0.90;;;;;;;;;;4998623;28;20755;-60
2022/01/03 13:31:16;;;;;;;2.00;0.70;;;;;;;;;;5002316;28;20251;-60
2022/01/03 13:33:43;;;;;;;0.63;0.40;;;;;;;;;;4987731;28;20209;-60
2022/01/03 13:36:14;;;;;;;6.20;0.83;;;;;;;;;;4997649;28;20212;-61
2022/01/03 13:38:42;;;;;;;1.60;0.63;;;;;;;;;;5005186;28;20216;-60
2022/01/03 13:41:13;;;;;;;0.80;0.40;;;;;;;;;;5007004;28;20215;-61
2022/01/03 13:43:43;;;;;;;1.33;0.43;;;;;;;;;;5006129;28;20211;-60
2022/01/03 13:49:12;;;;;;;0.60;0.30;;;;;;;;;;5006283;28;20339;-60
2022/01/03 13:51:52;;;;;;;5.53;0.60;;;;;;;;;;5003991;28;20247;-61
2022/01/03 13:54:23;;;;;;;2.77;0.50;;;;;;;;;;5006466;28;20287;-61
2022/01/03 13:56:50;;;;;;;3.10;0.73;;;;;;;;;;5006283;28;20316;-61
2022/01/03 13:59:18;;;;;;;1.53;0.60;;;;;;;;;;5006011;28;20251;-59
2022/01/03 14:01:45;;;;;;;6.60;1.27;;;;;;;;;;5005251;28;20216;-61
2022/01/03 14:04:14;;;;;;;4.03;0.83;;;;;;;;;;4986576;28;20313;-61
2022/01/03 14:06:41;;;;;;;2.17;1.00;;;;;;;;;;5003623;28;20645;-61
2022/01/03 14:09:12;;;;;;;1.43;0.90;;;;;;;;;;5005588;28;20197;-60
2022/01/03 14:11:39;;;;;;;2.57;0.80;;;;;;;;;;4999194;28;20212;-60
2022/01/03 14:14:10;;;;;;;1.93;0.60;;;;;;;;;;4981640;28;20225;-60
2022/01/03 14:16:51;;;;;;;0.80;0.80;;;;;;;;;;4983400;28;20217;-60
2022/01/03 14:19:19;;;;;;;3.47;0.80;;;;;;;;;;4983037;28;20288;-60
2022/01/03 14:21:48;;;;;;;7.00;0.70;;;;;;;;;;4984562;28;20240;-61
2022/01/03 14:24:15;;;;;;;2.93;0.50;;;;;;;;;;4985004;28;20652;-60
2022/01/03 14:26:42;;;;;;;1.17;0.50;;;;;;;;;;4982178;28;20209;-60
2022/01/03 14:29:12;;;;;;;3.20;0.73;;;;;;;;;;4982229;28;20292;-60
2022/01/03 14:31:46;;;;;;;1.53;0.57;;;;;;;;;;4980985;28;20226;-60
2022/01/03 14:34:19;;;;;;;3.20;0.63;;;;;;;;;;4983008;28;20702;-59
2022/01/03 14:36:47;;;;;;;4.13;0.70;;;;;;;;;;4980834;28;20228;-60
2022/01/03 14:39:14;;;;;;;1.70;0.43;;;;;;;;;;4984883;28;20769;-59
2022/01/03 14:41:41;;;;;;;1.03;0.60;;;;;;;;;;4982364;28;20684;-59
2022/01/03 14:44:09;;;;;;;3.03;0.43;;;;;;;;;;4981825;28;20217;-59
2022/01/03 14:46:37;;;;;;;1.97;0.40;;;;;;;;;;4981153;28;20217;-60
2022/01/03 14:49:05;;;;;;;0.53;0.33;;;;;;;;;;4986602;28;20213;-61
2022/01/03 14:51:40;;;;;;;0.80;0.40;;;;;;;;;;4981305;28;20241;-59
2022/01/03 14:54:12;;;;;;;3.70;0.63;;;;;;;;;;4982417;28;20216;-59
2022/01/03 14:56:39;;;;;;;0.63;0.30;;;;;;;;;;4981994;28;20221;-60
2022/01/03 14:59:09;;;;;;;1.43;0.60;;;;;;;;;;4982569;28;20221;-60
2022/01/03 15:01:36;;;;;;;3.93;0.80;;;;;;;;;;4981785;28;20661;-60
2022/01/03 15:04:03;;;;;;;4.27;0.93;;;;;;;;;;4983342;28;20617;-60
2022/01/03 15:06:30;;;;;;;2.80;0.70;;;;;;;;;;4985909;28;20228;-60
2022/01/03 15:08:59;;;;;;;3.37;0.50;;;;;;;;;;4982967;28;20603;-61
2022/01/03 15:11:26;;;;;;;1.23;0.73;;;;;;;;;;4981893;28;20244;-60
2022/01/03 15:13:53;;;;;;;5.70;0.83;;;;;;;;;;4981585;28;20214;-60
2022/01/03 15:16:20;;;;;;;1.70;0.67;;;;;;;;;;4986739;28;20264;-59
2022/01/03 15:18:47;;;;;;;1.10;0.60;;;;;;;;;;4981539;28;20235;-59
2022/01/03 15:21:14;;;;;;;1.63;0.80;;;;;;;;;;4983095;28;20244;-58